sensor_id;sensor_type;location;lat;lon;timestamp;temperature;humidity
6581;DHT22;3324;50.796;7.228;2024-03-23T00:52:18;10.80;99.90
6581;DHT22;3324;50.796;7.228;2024-03-23T00:54:43;10.80;99.90
6581;DHT22;3324;50.796;7.228;2024-03-23T00:57:09;10.70;99.90
6581;DHT22;3324;50.796;7.228;2024-03-23T00:59:35;10.80;99.90
6581;DHT22;3324;50.796;7.228;2024-03-23T01:02:00;10.80;99.90
6581;DHT22;3324;50.796;7.228;2024-03-23T01:04:26;10.80;99.90
6581;DHT22;3324;50.796;7.228;2024-03-23T01:06:51;10.80;99.90
6581;DHT22;3324;50.796;7.228;2024-03-23T01:09:17;10.80;99.90
6581;DHT22;3324;50.796;7.228;2024-03-23T01:11:42;10.70;99.90
6581;DHT22;3324;50.796;7.228;2024-03-23T01:14:08;10.60;99.90
6581;DHT22;3324;50.796;7.228;2024-03-23T01:16:33;10.60;99.90
6581;DHT22;3324;50.796;7.228;2024-03-23T01:18:59;10.60;99.90
6581;DHT22;3324;50.796;7.228;2024-03-23T01:21:24;10.60;99.90
6581;DHT22;3324;50.796;7.228;2024-03-23T01:23:50;10.60;99.90
6581;DHT22;3324;50.796;7.228;2024-03-23T01:26:15;10.60;99.90
6581;DHT22;3324;50.796;7.228;2024-03-23T01:28:41;10.60;99.90
6581;DHT22;3324;50.796;7.228;2024-03-23T01:31:06;10.50;99.90
6581;DHT22;3324;50.796;7.228;2024-03-23T01:33:32;10.50;99.90
6581;DHT22;3324;50.796;7.228;2024-03-23T01:35:57;10.40;99.90
6581;DHT22;3324;50.796;7.228;2024-03-23T01:38:23;10.40;99.90
6581;DHT22;3324;50.796;7.228;2024-03-23T01:40:49;10.40;99.90
6581;DHT22;3324;50.796;7.228;2024-03-23T01:43:14;10.40;99.90
6581;DHT22;3324;50.796;7.228;2024-03-23T01:45:40;10.40;99.90
6581;DHT22;3324;50.796;7.228;2024-03-23T01:48:05;10.40;99.90
6581;DHT22;3324;50.796;7.228;2024-03-23T01:50:31;10.40;99.90
6581;DHT22;3324;50.796;7.228;2024-03-23T01:53:00;10.40;99.90
6581;DHT22;3324;50.796;7.228;2024-03-23T01:55:25;10.40;99.90
6581;DHT22;3324;50.796;7.228;2024-03-23T01:57:51;10.30;99.90
6581;DHT22;3324;50.796;7.228;2024-03-23T02:00:16;10.20;99.90
6581;DHT22;3324;50.796;7.228;2024-03-23T02:02:43;10.20;99.90
6581;DHT22;3324;50.796;7.228;2024-03-23T02:05:09;10.20;99.90
6581;DHT22;3324;50.796;7.228;2024-03-23T02:07:35;10.20;99.90
6581;DHT22;3324;50.796;7.228;2024-03-23T02:10:00;10.20;99.90
6581;DHT22;3324;50.796;7.228;2024-03-23T02:12:26;10.10;99.90
6581;DHT22;3324;50.796;7.228;2024-03-23T02:14:51;10.10;99.90
6581;DHT22;3324;50.796;7.228;2024-03-23T02:17:17;10.10;99.90
6581;DHT22;3324;50.796;7.228;2024-03-23T02:19:42;10.10;99.90
6581;DHT22;3324;50.796;7.228;2024-03-23T02:22:08;10.10;99.90
6581;DHT22;3324;50.796;7.228;2024-03-23T02:24:36;10.10;99.90
6581;DHT22;3324;50.796;7.228;2024-03-23T02:27:01;10.10;99.90
6581;DHT22;3324;50.796;7.228;2024-03-23T02:29:27;10.00;99.90
6581;DHT22;3324;50.796;7.228;2024-03-23T02:31:52;10.00;99.90
6581;DHT22;3324;50.796;7.228;2024-03-23T02:34:18;10.00;99.90
6581;DHT22;3324;50.796;7.228;2024-03-23T02:36:43;9.90;99.90
6581;DHT22;3324;50.796;7.228;2024-03-23T02:39:09;9.90;99.90
6581;DHT22;3324;50.796;7.228;2024-03-23T02:41:34;9.90;99.90
6581;DHT22;3324;50.796;7.228;2024-03-23T02:44:00;9.90;99.90
6581;DHT22;3324;50.796;7.228;2024-03-23T02:46:25;9.80;99.90
6581;DHT22;3324;50.796;7.228;2024-03-23T02:48:51;9.80;99.90
6581;DHT22;3324;50.796;7.228;2024-03-23T02:51:16;9.70;99.90
6581;DHT22;3324;50.796;7.228;2024-03-23T02:53:42;9.60;99.90
6581;DHT22;3324;50.796;7.228;2024-03-23T02:56:07;9.60;99.90
6581;DHT22;3324;50.796;7.228;2024-03-23T02:58:33;9.60;99.90
6581;DHT22;3324;50.796;7.228;2024-03-23T03:00:59;9.60;99.90
6581;DHT22;3324;50.796;7.228;2024-03-23T03:03:24;9.50;99.90
6581;DHT22;3324;50.796;7.228;2024-03-23T03:05:56;9.50;99.90
6581;DHT22;3324;50.796;7.228;2024-03-23T03:08:21;9.40;99.90
6581;DHT22;3324;50.796;7.228;2024-03-23T03:10:47;9.40;99.90
6581;DHT22;3324;50.796;7.228;2024-03-23T03:13:12;9.40;99.90
6581;DHT22;3324;50.796;7.228;2024-03-23T03:15:39;9.20;99.90
6581;DHT22;3324;50.796;7.228;2024-03-23T03:18:05;9.20;99.90
6581;DHT22;3324;50.796;7.228;2024-03-23T03:20:30;9.20;99.90
6581;DHT22;3324;50.796;7.228;2024-03-23T03:22:57;9.20;99.90
6581;DHT22;3324;50.796;7.228;2024-03-23T03:25:22;9.20;99.90
6581;DHT22;3324;50.796;7.228;2024-03-23T03:27:48;9.20;99.90
6581;DHT22;3324;50.796;7.228;2024-03-23T03:30:13;9.20;99.90
6581;DHT22;3324;50.796;7.228;2024-03-23T03:32:39;9.10;99.90
6581;DHT22;3324;50.796;7.228;2024-03-23T03:35:04;9.00;99.90
6581;DHT22;3324;50.796;7.228;2024-03-23T03:37:30;8.90;99.90
6581;DHT22;3324;50.796;7.228;2024-03-23T03:39:55;8.80;99.90
6581;DHT22;3324;50.796;7.228;2024-03-23T03:42:21;8.70;99.90
6581;DHT22;3324;50.796;7.228;2024-03-23T03:44:46;8.60;99.90
6581;DHT22;3324;50.796;7.228;2024-03-23T03:47:12;8.50;99.90
6581;DHT22;3324;50.796;7.228;2024-03-23T03:49:37;8.50;99.90
6581;DHT22;3324;50.796;7.228;2024-03-23T03:52:03;8.50;99.90
6581;DHT22;3324;50.796;7.228;2024-03-23T03:57:31;8.40;99.90
6581;DHT22;3324;50.796;7.228;2024-03-23T03:59:57;8.40;99.90
6581;DHT22;3324;50.796;7.228;2024-03-23T04:02:22;8.40;99.90
6581;DHT22;3324;50.796;7.228;2024-03-23T04:04:48;8.30;99.90
6581;DHT22;3324;50.796;7.228;2024-03-23T04:07:13;8.40;99.90
6581;DHT22;3324;50.796;7.228;2024-03-23T04:09:39;8.30;99.90
6581;DHT22;3324;50.796;7.228;2024-03-23T04:12:04;8.30;99.90
6581;DHT22;3324;50.796;7.228;2024-03-23T04:14:30;8.30;99.90
6581;DHT22;3324;50.796;7.228;2024-03-23T04:16:56;8.20;99.90
6581;DHT22;3324;50.796;7.228;2024-03-23T04:19:21;8.20;99.90
6581;DHT22;3324;50.796;7.228;2024-03-23T04:21:47;8.10;99.90
6581;DHT22;3324;50.796;7.228;2024-03-23T04:24:12;8.10;99.90
6581;DHT22;3324;50.796;7.228;2024-03-23T04:26:41;8.10;99.90
6581;DHT22;3324;50.796;7.228;2024-03-23T04:29:07;8.10;99.90
6581;DHT22;3324;50.796;7.228;2024-03-23T04:31:32;8.10;99.90
6581;DHT22;3324;50.796;7.228;2024-03-23T04:34:02;8.10;99.90
6581;DHT22;3324;50.796;7.228;2024-03-23T04:36:28;8.10;99.90
6581;DHT22;3324;50.796;7.228;2024-03-23T04:38:54;8.10;99.90
6581;DHT22;3324;50.796;7.228;2024-03-23T04:41:19;8.10;99.90
6581;DHT22;3324;50.796;7.228;2024-03-23T04:43:45;8.20;99.90
6581;DHT22;3324;50.796;7.228;2024-03-23T04:46:10;8.10;99.90
6581;DHT22;3324;50.796;7.228;2024-03-23T04:48:36;8.10;99.90
6581;DHT22;3324;50.796;7.228;2024-03-23T04:51:01;8.10;99.90
6581;DHT22;3324;50.796;7.228;2024-03-23T04:53:27;8.10;99.90
6581;DHT22;3324;50.796;7.228;2024-03-23T04:55:56;8.10;99.90
6581;DHT22;3324;50.796;7.228;2024-03-23T04:58:22;8.20;99.90
6581;DHT22;3324;50.796;7.228;2024-03-23T05:00:48;8.20;99.90
6581;DHT22;3324;50.796;7.228;2024-03-23T05:03:13;8.10;99.90
6581;DHT22;3324;50.796;7.228;2024-03-23T05:05:39;8.10;99.90
6581;DHT22;3324;50.796;7.228;2024-03-23T05:08:04;8.10;99.90
6581;DHT22;3324;50.796;7.228;2024-03-23T05:10:30;8.20;99.90
6581;DHT22;3324;50.796;7.228;2024-03-23T05:12:57;8.10;99.90
6581;DHT22;3324;50.796;7.228;2024-03-23T05:15:23;8.10;99.90
6581;DHT22;3324;50.796;7.228;2024-03-23T05:17:48;8.10;99.90
6581;DHT22;3324;50.796;7.228;2024-03-23T05:20:14;8.10;99.90
6581;DHT22;3324;50.796;7.228;2024-03-23T05:22:39;8.00;99.90
6581;DHT22;3324;50.796;7.228;2024-03-23T05:25:05;8.10;99.90
6581;DHT22;3324;50.796;7.228;2024-03-23T05:27:31;8.00;99.90
6581;DHT22;3324;50.796;7.228;2024-03-23T05:29:56;8.00;99.90
6581;DHT22;3324;50.796;7.228;2024-03-23T05:32:22;8.10;99.90
6581;DHT22;3324;50.796;7.228;2024-03-23T05:34:48;8.00;99.90
6581;DHT22;3324;50.796;7.228;2024-03-23T05:37:15;8.00;99.90
6581;DHT22;3324;50.796;7.228;2024-03-23T05:39:41;7.90;99.90
6581;DHT22;3324;50.796;7.228;2024-03-23T05:42:06;7.90;99.90
6581;DHT22;3324;50.796;7.228;2024-03-23T05:44:32;8.00;99.90
6581;DHT22;3324;50.796;7.228;2024-03-23T05:46:57;8.00;99.90
6581;DHT22;3324;50.796;7.228;2024-03-23T05:49:22;8.00;99.90
6581;DHT22;3324;50.796;7.228;2024-03-23T05:51:48;7.90;99.90
6581;DHT22;3324;50.796;7.228;2024-03-23T05:54:13;8.00;99.90
6581;DHT22;3324;50.796;7.228;2024-03-23T05:56:39;8.00;99.90
6581;DHT22;3324;50.796;7.228;2024-03-23T05:59:05;7.90;99.90
6581;DHT22;3324;50.796;7.228;2024-03-23T06:01:30;7.90;99.90
6581;DHT22;3324;50.796;7.228;2024-03-23T06:03:57;7.80;99.90
6581;DHT22;3324;50.796;7.228;2024-03-23T06:06:23;7.90;99.90
6581;DHT22;3324;50.796;7.228;2024-03-23T06:08:49;7.90;99.90
6581;DHT22;3324;50.796;7.228;2024-03-23T06:11:14;7.80;99.90
6581;DHT22;3324;50.796;7.228;2024-03-23T06:13:40;7.90;99.90
6581;DHT22;3324;50.796;7.228;2024-03-23T06:16:05;7.90;99.90
6581;DHT22;3324;50.796;7.228;2024-03-23T06:18:32;7.90;99.90
6581;DHT22;3324;50.796;7.228;2024-03-23T06:20:57;7.80;99.90
6581;DHT22;3324;50.796;7.228;2024-03-23T06:23:23;7.80;99.90
6581;DHT22;3324;50.796;7.228;2024-03-23T06:25:48;7.70;99.90
6581;DHT22;3324;50.796;7.228;2024-03-23T06:28:14;7.70;99.90
6581;DHT22;3324;50.796;7.228;2024-03-23T06:30:39;7.70;99.90
6581;DHT22;3324;50.796;7.228;2024-03-23T06:36:11;7.70;99.90
6581;DHT22;3324;50.796;7.228;2024-03-23T06:38:37;7.70;99.90
6581;DHT22;3324;50.796;7.228;2024-03-23T06:41:03;7.60;99.90
6581;DHT22;3324;50.796;7.228;2024-03-23T06:43:29;7.60;99.90
6581;DHT22;3324;50.796;7.228;2024-03-23T06:45:55;7.60;99.90
6581;DHT22;3324;50.796;7.228;2024-03-23T06:48:21;7.60;99.90
6581;DHT22;3324;50.796;7.228;2024-03-23T06:50:47;7.60;99.90
6581;DHT22;3324;50.796;7.228;2024-03-23T06:53:13;7.70;99.90
6581;DHT22;3324;50.796;7.228;2024-03-23T06:55:38;7.70;99.90
6581;DHT22;3324;50.796;7.228;2024-03-23T06:58:04;7.70;99.90
6581;DHT22;3324;50.796;7.228;2024-03-23T07:00:30;7.80;99.90
6581;DHT22;3324;50.796;7.228;2024-03-23T07:02:55;7.90;99.90
6581;DHT22;3324;50.796;7.228;2024-03-23T07:05:21;7.80;99.90
6581;DHT22;3324;50.796;7.228;2024-03-23T07:07:46;7.80;99.90
6581;DHT22;3324;50.796;7.228;2024-03-23T07:10:11;7.80;99.90
6581;DHT22;3324;50.796;7.228;2024-03-23T07:12:37;7.90;99.90
6581;DHT22;3324;50.796;7.228;2024-03-23T07:15:03;7.90;99.90
6581;DHT22;3324;50.796;7.228;2024-03-23T07:17:28;8.00;99.90
6581;DHT22;3324;50.796;7.228;2024-03-23T07:19:54;8.10;99.90
6581;DHT22;3324;50.796;7.228;2024-03-23T07:22:19;8.10;99.90
6581;DHT22;3324;50.796;7.228;2024-03-23T07:24:45;8.20;99.90
6581;DHT22;3324;50.796;7.228;2024-03-23T07:27:10;8.20;99.90
6581;DHT22;3324;50.796;7.228;2024-03-23T07:29:36;8.30;99.90
6581;DHT22;3324;50.796;7.228;2024-03-23T07:32:02;8.40;99.90
6581;DHT22;3324;50.796;7.228;2024-03-23T07:34:27;8.40;99.90
6581;DHT22;3324;50.796;7.228;2024-03-23T07:36:53;8.40;99.90
6581;DHT22;3324;50.796;7.228;2024-03-23T07:39:18;8.50;99.90
6581;DHT22;3324;50.796;7.228;2024-03-23T07:41:44;8.50;99.90
6581;DHT22;3324;50.796;7.228;2024-03-23T07:44:09;8.60;99.90
6581;DHT22;3324;50.796;7.228;2024-03-23T07:46:35;8.60;99.90
6581;DHT22;3324;50.796;7.228;2024-03-23T07:49:00;8.60;99.90
6581;DHT22;3324;50.796;7.228;2024-03-23T07:51:26;8.70;99.90
6581;DHT22;3324;50.796;7.228;2024-03-23T07:53:51;8.70;99.90
6581;DHT22;3324;50.796;7.228;2024-03-23T07:56:18;8.80;99.90
6581;DHT22;3324;50.796;7.228;2024-03-23T07:58:44;8.90;99.90
6581;DHT22;3324;50.796;7.228;2024-03-23T08:01:11;9.00;99.90
6581;DHT22;3324;50.796;7.228;2024-03-23T08:03:38;9.10;99.90
6581;DHT22;3324;50.796;7.228;2024-03-23T08:06:37;9.10;99.90
6581;DHT22;3324;50.796;7.228;2024-03-23T08:08:55;9.20;99.90
6581;DHT22;3324;50.796;7.228;2024-03-23T08:11:27;9.30;99.90
6581;DHT22;3324;50.796;7.228;2024-03-23T08:13:54;9.40;99.90
6581;DHT22;3324;50.796;7.228;2024-03-23T08:16:19;9.40;99.90
6581;DHT22;3324;50.796;7.228;2024-03-23T08:18:45;9.50;99.90
6581;DHT22;3324;50.796;7.228;2024-03-23T08:21:10;9.50;99.90
6581;DHT22;3324;50.796;7.228;2024-03-23T08:23:36;9.50;99.90
6581;DHT22;3324;50.796;7.228;2024-03-23T08:26:03;9.50;99.90
6581;DHT22;3324;50.796;7.228;2024-03-23T08:28:29;9.50;99.90
6581;DHT22;3324;50.796;7.228;2024-03-23T08:30:55;9.50;99.90
6581;DHT22;3324;50.796;7.228;2024-03-23T08:33:21;9.50;99.90
6581;DHT22;3324;50.796;7.228;2024-03-23T08:35:55;9.40;99.90
6581;DHT22;3324;50.796;7.228;2024-03-23T08:38:22;9.40;99.90
6581;DHT22;3324;50.796;7.228;2024-03-23T08:40:47;9.30;99.90
6581;DHT22;3324;50.796;7.228;2024-03-23T08:43:13;9.40;99.90
6581;DHT22;3324;50.796;7.228;2024-03-23T08:45:38;9.50;99.90
6581;DHT22;3324;50.796;7.228;2024-03-23T08:48:04;9.50;99.90
6581;DHT22;3324;50.796;7.228;2024-03-23T08:50:29;9.50;99.90
6581;DHT22;3324;50.796;7.228;2024-03-23T08:52:55;9.60;99.90
6581;DHT22;3324;50.796;7.228;2024-03-23T08:55:20;9.60;99.90
6581;DHT22;3324;50.796;7.228;2024-03-23T08:57:46;9.70;99.90
6581;DHT22;3324;50.796;7.228;2024-03-23T09:00:11;9.80;99.90
6581;DHT22;3324;50.796;7.228;2024-03-23T09:02:37;10.00;99.90
6581;DHT22;3324;50.796;7.228;2024-03-23T09:05:02;10.10;99.90
6581;DHT22;3324;50.796;7.228;2024-03-23T09:07:30;10.30;99.90
6581;DHT22;3324;50.796;7.228;2024-03-23T09:09:55;10.40;99.90
6581;DHT22;3324;50.796;7.228;2024-03-23T09:12:21;10.50;99.90
6581;DHT22;3324;50.796;7.228;2024-03-23T09:14:46;10.50;99.90
6581;DHT22;3324;50.796;7.228;2024-03-23T09:17:12;10.50;99.90
6581;DHT22;3324;50.796;7.228;2024-03-23T09:19:38;10.60;99.90
6581;DHT22;3324;50.796;7.228;2024-03-23T09:22:04;10.70;99.90
6581;DHT22;3324;50.796;7.228;2024-03-23T09:24:29;10.80;99.90
6581;DHT22;3324;50.796;7.228;2024-03-23T09:26:54;10.90;99.90
6581;DHT22;3324;50.796;7.228;2024-03-23T09:29:20;10.80;99.90
6581;DHT22;3324;50.796;7.228;2024-03-23T09:31:45;10.90;99.90
6581;DHT22;3324;50.796;7.228;2024-03-23T09:34:11;11.60;99.90
6581;DHT22;3324;50.796;7.228;2024-03-23T09:36:37;11.90;99.90
6581;DHT22;3324;50.796;7.228;2024-03-23T09:39:02;11.90;99.90
6581;DHT22;3324;50.796;7.228;2024-03-23T09:41:29;12.10;99.90
6581;DHT22;3324;50.796;7.228;2024-03-23T09:43:54;12.40;99.90
6581;DHT22;3324;50.796;7.228;2024-03-23T09:46:20;12.30;99.90
6581;DHT22;3324;50.796;7.228;2024-03-23T09:48:46;12.20;99.90
6581;DHT22;3324;50.796;7.228;2024-03-23T09:51:11;11.90;99.90
6581;DHT22;3324;50.796;7.228;2024-03-23T09:53:37;11.60;99.90
6581;DHT22;3324;50.796;7.228;2024-03-23T09:56:02;11.40;99.90
6581;DHT22;3324;50.796;7.228;2024-03-23T09:58:28;11.20;99.90
6581;DHT22;3324;50.796;7.228;2024-03-23T10:00:53;11.10;99.90
6581;DHT22;3324;50.796;7.228;2024-03-23T10:03:19;11.10;99.90
6581;DHT22;3324;50.796;7.228;2024-03-23T10:05:44;11.00;99.90
6581;DHT22;3324;50.796;7.228;2024-03-23T10:10:39;10.80;99.90
6581;DHT22;3324;50.796;7.228;2024-03-23T10:13:04;10.80;99.90
6581;DHT22;3324;50.796;7.228;2024-03-23T10:15:30;10.70;99.90
6581;DHT22;3324;50.796;7.228;2024-03-23T10:17:58;10.60;99.90
6581;DHT22;3324;50.796;7.228;2024-03-23T10:20:30;10.60;99.90
6581;DHT22;3324;50.796;7.228;2024-03-23T10:22:55;10.60;99.90
6581;DHT22;3324;50.796;7.228;2024-03-23T10:25:24;10.70;99.90
6581;DHT22;3324;50.796;7.228;2024-03-23T10:27:59;10.60;99.90
6581;DHT22;3324;50.796;7.228;2024-03-23T10:30:25;10.60;99.90
6581;DHT22;3324;50.796;7.228;2024-03-23T10:33:11;10.60;99.90
6581;DHT22;3324;50.796;7.228;2024-03-23T10:35:37;10.60;99.90
6581;DHT22;3324;50.796;7.228;2024-03-23T10:38:06;10.60;99.90
6581;DHT22;3324;50.796;7.228;2024-03-23T10:40:33;10.50;99.90
6581;DHT22;3324;50.796;7.228;2024-03-23T10:42:59;10.40;99.90
6581;DHT22;3324;50.796;7.228;2024-03-23T10:45:25;10.10;99.90
6581;DHT22;3324;50.796;7.228;2024-03-23T10:47:51;9.80;99.90
6581;DHT22;3324;50.796;7.228;2024-03-23T10:50:17;9.70;99.90
6581;DHT22;3324;50.796;7.228;2024-03-23T10:52:44;9.40;99.90
6581;DHT22;3324;50.796;7.228;2024-03-23T10:55:11;9.20;99.90
6581;DHT22;3324;50.796;7.228;2024-03-23T10:57:40;9.20;99.90
6581;DHT22;3324;50.796;7.228;2024-03-23T11:00:06;9.10;99.90
6581;DHT22;3324;50.796;7.228;2024-03-23T11:02:33;9.10;99.90
6581;DHT22;3324;50.796;7.228;2024-03-23T11:04:59;9.00;99.90
6581;DHT22;3324;50.796;7.228;2024-03-23T11:09:53;9.00;99.90
6581;DHT22;3324;50.796;7.228;2024-03-23T11:15:11;9.10;99.90
6581;DHT22;3324;50.796;7.228;2024-03-23T11:17:36;9.20;99.90
6581;DHT22;3324;50.796;7.228;2024-03-23T11:20:05;9.30;99.90
6581;DHT22;3324;50.796;7.228;2024-03-23T11:25:03;9.90;99.90
6581;DHT22;3324;50.796;7.228;2024-03-23T11:27:28;10.20;99.90
6581;DHT22;3324;50.796;7.228;2024-03-23T11:29:54;10.40;99.90
6581;DHT22;3324;50.796;7.228;2024-03-23T11:32:19;10.60;99.90
6581;DHT22;3324;50.796;7.228;2024-03-23T11:34:46;10.80;99.90
6581;DHT22;3324;50.796;7.228;2024-03-23T11:37:11;11.00;99.90
6581;DHT22;3324;50.796;7.228;2024-03-23T11:39:37;11.20;99.90
6581;DHT22;3324;50.796;7.228;2024-03-23T11:45:09;11.10;99.90
6581;DHT22;3324;50.796;7.228;2024-03-23T11:47:34;11.10;99.90
6581;DHT22;3324;50.796;7.228;2024-03-23T11:50:00;11.20;99.90
6581;DHT22;3324;50.796;7.228;2024-03-23T11:52:25;11.20;99.90
6581;DHT22;3324;50.796;7.228;2024-03-23T11:54:51;11.10;99.90
6581;DHT22;3324;50.796;7.228;2024-03-23T11:57:16;11.00;99.90
6581;DHT22;3324;50.796;7.228;2024-03-23T11:59:42;11.10;99.90
6581;DHT22;3324;50.796;7.228;2024-03-23T12:02:10;11.30;99.90
6581;DHT22;3324;50.796;7.228;2024-03-23T12:04:40;11.40;99.90
6581;DHT22;3324;50.796;7.228;2024-03-23T12:07:24;11.60;99.90
6581;DHT22;3324;50.796;7.228;2024-03-23T12:10:04;11.60;99.90
6581;DHT22;3324;50.796;7.228;2024-03-23T12:12:31;11.40;99.90
6581;DHT22;3324;50.796;7.228;2024-03-23T12:17:28;11.30;99.90
6581;DHT22;3324;50.796;7.228;2024-03-23T12:19:54;11.20;99.90
6581;DHT22;3324;50.796;7.228;2024-03-23T12:22:23;11.10;99.90
6581;DHT22;3324;50.796;7.228;2024-03-23T12:24:49;11.00;99.90
6581;DHT22;3324;50.796;7.228;2024-03-23T12:27:14;10.90;99.90
6581;DHT22;3324;50.796;7.228;2024-03-23T12:29:40;11.10;99.90
6581;DHT22;3324;50.796;7.228;2024-03-23T12:32:07;11.40;99.90
6581;DHT22;3324;50.796;7.228;2024-03-23T12:34:32;11.60;99.90
6581;DHT22;3324;50.796;7.228;2024-03-23T12:36:58;11.70;99.90
6581;DHT22;3324;50.796;7.228;2024-03-23T12:39:23;11.60;99.90
6581;DHT22;3324;50.796;7.228;2024-03-23T12:41:49;11.60;99.90
6581;DHT22;3324;50.796;7.228;2024-03-23T12:44:14;11.50;99.90
6581;DHT22;3324;50.796;7.228;2024-03-23T12:46:41;11.50;99.90
6581;DHT22;3324;50.796;7.228;2024-03-23T12:49:06;11.40;99.90
6581;DHT22;3324;50.796;7.228;2024-03-23T12:51:32;11.30;99.90
6581;DHT22;3324;50.796;7.228;2024-03-23T12:53:58;11.20;99.90
6581;DHT22;3324;50.796;7.228;2024-03-23T12:56:23;11.10;99.90
6581;DHT22;3324;50.796;7.228;2024-03-23T12:58:49;10.90;99.90
6581;DHT22;3324;50.796;7.228;2024-03-23T13:01:17;10.80;99.90
6581;DHT22;3324;50.796;7.228;2024-03-23T13:03:42;10.80;99.90
6581;DHT22;3324;50.796;7.228;2024-03-23T13:06:10;10.70;99.90
6581;DHT22;3324;50.796;7.228;2024-03-23T13:08:35;10.70;99.90
6581;DHT22;3324;50.796;7.228;2024-03-23T13:11:01;10.80;99.90
6581;DHT22;3324;50.796;7.228;2024-03-23T13:13:26;11.00;99.90
6581;DHT22;3324;50.796;7.228;2024-03-23T13:15:52;11.30;99.90
6581;DHT22;3324;50.796;7.228;2024-03-23T13:18:17;11.50;99.90
6581;DHT22;3324;50.796;7.228;2024-03-23T13:20:43;11.70;99.90
6581;DHT22;3324;50.796;7.228;2024-03-23T13:23:08;11.80;99.90
6581;DHT22;3324;50.796;7.228;2024-03-23T13:25:34;11.70;99.90
6581;DHT22;3324;50.796;7.228;2024-03-23T13:27:59;11.60;99.90
6581;DHT22;3324;50.796;7.228;2024-03-23T13:30:26;11.40;99.90
6581;DHT22;3324;50.796;7.228;2024-03-23T13:32:51;11.40;99.90
6581;DHT22;3324;50.796;7.228;2024-03-23T13:35:17;11.20;99.90
6581;DHT22;3324;50.796;7.228;2024-03-23T13:37:43;11.10;99.90
6581;DHT22;3324;50.796;7.228;2024-03-23T13:40:08;11.20;99.90
6581;DHT22;3324;50.796;7.228;2024-03-23T13:42:34;11.10;99.90
6581;DHT22;3324;50.796;7.228;2024-03-23T13:45:00;11.20;99.90
6581;DHT22;3324;50.796;7.228;2024-03-23T13:47:25;11.40;99.90
6581;DHT22;3324;50.796;7.228;2024-03-23T13:49:51;11.60;99.90
6581;DHT22;3324;50.796;7.228;2024-03-23T13:52:16;11.60;99.90
6581;DHT22;3324;50.796;7.228;2024-03-23T13:54:48;11.60;99.90
6581;DHT22;3324;50.796;7.228;2024-03-23T13:57:13;11.70;99.90
6581;DHT22;3324;50.796;7.228;2024-03-23T13:59:39;11.80;99.90
6581;DHT22;3324;50.796;7.228;2024-03-23T14:02:04;11.90;99.90
6581;DHT22;3324;50.796;7.228;2024-03-23T14:04:30;12.00;99.90
6581;DHT22;3324;50.796;7.228;2024-03-23T14:06:55;12.10;99.90
6581;DHT22;3324;50.796;7.228;2024-03-23T14:09:21;12.20;99.90
6581;DHT22;3324;50.796;7.228;2024-03-23T14:11:48;12.50;99.90
6581;DHT22;3324;50.796;7.228;2024-03-23T14:14:14;12.60;99.90
6581;DHT22;3324;50.796;7.228;2024-03-23T14:16:43;12.60;99.90
6581;DHT22;3324;50.796;7.228;2024-03-23T14:19:08;12.60;99.90
6581;DHT22;3324;50.796;7.228;2024-03-23T14:21:34;12.60;99.90
6581;DHT22;3324;50.796;7.228;2024-03-23T14:24:00;12.40;99.90
6581;DHT22;3324;50.796;7.228;2024-03-23T14:26:26;12.30;99.90
6581;DHT22;3324;50.796;7.228;2024-03-23T14:28:52;12.10;99.90
6581;DHT22;3324;50.796;7.228;2024-03-23T14:31:17;12.00;99.90
6581;DHT22;3324;50.796;7.228;2024-03-23T14:33:43;11.70;99.90
6581;DHT22;3324;50.796;7.228;2024-03-23T14:36:16;11.60;99.90
6581;DHT22;3324;50.796;7.228;2024-03-23T14:38:42;11.50;99.90
6581;DHT22;3324;50.796;7.228;2024-03-23T14:41:12;11.40;99.90
6581;DHT22;3324;50.796;7.228;2024-03-23T14:43:37;11.30;99.90
6581;DHT22;3324;50.796;7.228;2024-03-23T14:46:13;11.10;99.90
6581;DHT22;3324;50.796;7.228;2024-03-23T14:48:38;10.90;99.90
6581;DHT22;3324;50.796;7.228;2024-03-23T14:51:04;10.60;99.90
6581;DHT22;3324;50.796;7.228;2024-03-23T14:53:31;10.50;99.90
6581;DHT22;3324;50.796;7.228;2024-03-23T14:55:56;10.20;99.90
6581;DHT22;3324;50.796;7.228;2024-03-23T14:58:22;10.10;99.90
6581;DHT22;3324;50.796;7.228;2024-03-23T15:00:48;10.00;99.90
6581;DHT22;3324;50.796;7.228;2024-03-23T15:03:14;9.90;99.90
6581;DHT22;3324;50.796;7.228;2024-03-23T15:05:39;9.80;99.90
6581;DHT22;3324;50.796;7.228;2024-03-23T15:08:05;9.70;99.90
6581;DHT22;3324;50.796;7.228;2024-03-23T15:10:32;9.70;99.90
6581;DHT22;3324;50.796;7.228;2024-03-23T15:12:58;9.60;99.90
6581;DHT22;3324;50.796;7.228;2024-03-23T15:15:23;9.70;99.90
6581;DHT22;3324;50.796;7.228;2024-03-23T15:17:49;9.90;99.90
6581;DHT22;3324;50.796;7.228;2024-03-23T15:20:15;9.90;99.90
6581;DHT22;3324;50.796;7.228;2024-03-23T15:22:41;10.00;99.90
6581;DHT22;3324;50.796;7.228;2024-03-23T15:25:07;10.10;99.90
6581;DHT22;3324;50.796;7.228;2024-03-23T15:27:33;10.10;99.90
6581;DHT22;3324;50.796;7.228;2024-03-23T15:29:59;9.90;99.90
6581;DHT22;3324;50.796;7.228;2024-03-23T15:32:24;9.80;99.90
6581;DHT22;3324;50.796;7.228;2024-03-23T15:34:50;9.60;99.90
6581;DHT22;3324;50.796;7.228;2024-03-23T15:37:15;9.50;99.90
6581;DHT22;3324;50.796;7.228;2024-03-23T15:39:41;9.30;99.90
6581;DHT22;3324;50.796;7.228;2024-03-23T15:42:07;9.10;99.90
6581;DHT22;3324;50.796;7.228;2024-03-23T15:44:32;9.00;99.90
6581;DHT22;3324;50.796;7.228;2024-03-23T15:46:58;9.00;99.90
6581;DHT22;3324;50.796;7.228;2024-03-23T15:49:23;9.00;99.90
6581;DHT22;3324;50.796;7.228;2024-03-23T15:51:49;9.10;99.90
6581;DHT22;3324;50.796;7.228;2024-03-23T15:54:14;9.00;99.90
6581;DHT22;3324;50.796;7.228;2024-03-23T15:56:39;9.00;99.90
6581;DHT22;3324;50.796;7.228;2024-03-23T15:59:05;9.00;99.90
6581;DHT22;3324;50.796;7.228;2024-03-23T16:01:32;8.90;99.90
6581;DHT22;3324;50.796;7.228;2024-03-23T16:03:59;8.80;99.90
6581;DHT22;3324;50.796;7.228;2024-03-23T16:06:25;8.80;99.90
6581;DHT22;3324;50.796;7.228;2024-03-23T16:08:50;8.80;99.90
6581;DHT22;3324;50.796;7.228;2024-03-23T16:11:17;8.80;99.90
6581;DHT22;3324;50.796;7.228;2024-03-23T16:13:43;8.70;99.90
6581;DHT22;3324;50.796;7.228;2024-03-23T16:16:08;8.90;99.90
6581;DHT22;3324;50.796;7.228;2024-03-23T16:18:35;8.80;99.90
6581;DHT22;3324;50.796;7.228;2024-03-23T16:21:02;8.80;99.90
6581;DHT22;3324;50.796;7.228;2024-03-23T16:23:27;8.80;99.90
6581;DHT22;3324;50.796;7.228;2024-03-23T16:25:54;8.60;99.90
6581;DHT22;3324;50.796;7.228;2024-03-23T16:28:26;8.50;99.90
6581;DHT22;3324;50.796;7.228;2024-03-23T16:30:53;8.60;99.90
6581;DHT22;3324;50.796;7.228;2024-03-23T16:33:19;8.60;99.90
6581;DHT22;3324;50.796;7.228;2024-03-23T16:35:45;8.40;99.90
6581;DHT22;3324;50.796;7.228;2024-03-23T16:38:20;8.50;99.90
6581;DHT22;3324;50.796;7.228;2024-03-23T16:40:52;8.50;99.90
6581;DHT22;3324;50.796;7.228;2024-03-23T16:43:19;8.50;99.90
6581;DHT22;3324;50.796;7.228;2024-03-23T16:45:50;8.40;99.90
6581;DHT22;3324;50.796;7.228;2024-03-23T16:48:16;8.20;99.90
6581;DHT22;3324;50.796;7.228;2024-03-23T16:50:41;8.10;99.90
6581;DHT22;3324;50.796;7.228;2024-03-23T16:53:08;8.10;99.90
6581;DHT22;3324;50.796;7.228;2024-03-23T16:55:34;8.00;99.90
6581;DHT22;3324;50.796;7.228;2024-03-23T16:58:00;8.00;99.90
6581;DHT22;3324;50.796;7.228;2024-03-23T17:00:26;7.90;99.90
6581;DHT22;3324;50.796;7.228;2024-03-23T17:02:51;7.70;99.90
6581;DHT22;3324;50.796;7.228;2024-03-23T17:05:17;7.60;99.90
6581;DHT22;3324;50.796;7.228;2024-03-23T17:07:42;7.50;99.90
6581;DHT22;3324;50.796;7.228;2024-03-23T17:10:09;7.40;99.90
6581;DHT22;3324;50.796;7.228;2024-03-23T17:12:35;7.40;99.90
6581;DHT22;3324;50.796;7.228;2024-03-23T17:15:04;7.50;99.90